createdAt,value
2023-03-07T00:01:57.663Z,10.05
2023-03-07T00:04:26.178Z,10.82
2023-03-07T00:06:56.354Z,8.83
2023-03-07T00:09:23.594Z,11.10
2023-03-07T00:11:51.118Z,11.35
2023-03-07T00:14:18.352Z,10.68
2023-03-07T00:16:45.649Z,10.23
2023-03-07T00:19:12.834Z,9.88
2023-03-07T00:21:41.329Z,9.50
2023-03-07T00:24:10.071Z,10.05
2023-03-07T00:26:40.350Z,11.40
2023-03-07T00:29:09.626Z,10.10
2023-03-07T00:31:37.322Z,9.23
2023-03-07T00:34:04.812Z,9.75
2023-03-07T00:36:32.179Z,11.80
2023-03-07T00:39:00.717Z,9.80
2023-03-07T00:41:29.205Z,9.80
2023-03-07T00:43:56.406Z,12.55
2023-03-07T00:46:25.182Z,11.10
2023-03-07T00:48:53.220Z,10.68
2023-03-07T00:51:21.920Z,9.63
2023-03-07T00:53:50.144Z,11.20
2023-03-07T00:56:21.037Z,14.47
2023-03-07T00:58:48.605Z,10.52
2023-03-07T01:01:19.074Z,13.25
2023-03-07T01:03:49.562Z,13.73
2023-03-07T01:06:18.513Z,12.45
2023-03-07T01:08:46.327Z,13.82
2023-03-07T01:11:15.911Z,13.43
2023-03-07T01:13:44.623Z,13.60
2023-03-07T01:16:15.344Z,12.00
2023-03-07T01:18:44.042Z,12.65
2023-03-07T01:21:14.444Z,14.23
2023-03-07T01:23:42.580Z,14.70
2023-03-07T01:26:15.077Z,11.83
2023-03-07T01:28:44.306Z,9.40
2023-03-07T01:31:12.346Z,15.52
2023-03-07T01:33:41.380Z,17.83
2023-03-07T01:36:17.357Z,17.40
2023-03-07T01:38:45.961Z,14.38
2023-03-07T01:41:14.051Z,15.85
2023-03-07T01:43:42.122Z,15.65
2023-03-07T01:46:30.893Z,14.03
2023-03-07T01:49:04.928Z,15.38
2023-03-07T01:51:36.275Z,18.52
2023-03-07T01:54:07.483Z,14.35
2023-03-07T01:56:37.495Z,20.73
2023-03-07T01:59:05.358Z,19.73
2023-03-07T02:01:34.559Z,17.08
2023-03-07T02:04:08.306Z,19.90
2023-03-07T02:06:38.360Z,16.37
2023-03-07T02:09:12.240Z,23.90
2023-03-07T02:11:42.128Z,16.45
2023-03-07T02:14:10.369Z,21.50
2023-03-07T02:16:39.640Z,20.17
2023-03-07T02:19:27.469Z,17.17
2023-03-07T02:22:05.842Z,17.42
2023-03-07T02:24:40.146Z,18.98
2023-03-07T02:27:08.916Z,21.35
2023-03-07T02:29:39.599Z,19.25
2023-03-07T02:32:08.318Z,18.02
2023-03-07T02:34:35.632Z,18.42
2023-03-07T02:37:13.838Z,23.27
2023-03-07T02:39:44.006Z,15.57
2023-03-07T02:42:18.514Z,18.58
2023-03-07T02:44:57.102Z,22.05
2023-03-07T02:47:25.523Z,18.03
2023-03-07T02:49:53.154Z,20.80
2023-03-07T02:52:21.781Z,26.77
2023-03-07T02:54:49.109Z,25.92
2023-03-07T02:57:18.112Z,24.60
2023-03-07T02:59:45.426Z,24.48
2023-03-07T03:02:12.800Z,23.50
2023-03-07T03:04:40.008Z,22.88
2023-03-07T03:07:07.235Z,24.10
2023-03-07T03:09:36.266Z,24.20
2023-03-07T03:12:04.520Z,28.30
2023-03-07T03:14:34.583Z,27.83
2023-03-07T03:17:01.936Z,26.85
2023-03-07T03:19:29.696Z,22.13
2023-03-07T03:21:56.982Z,27.20
2023-03-07T03:24:24.607Z,25.98
2023-03-07T03:26:55.707Z,30.17
2023-03-07T03:29:22.946Z,22.35
2023-03-07T03:31:52.090Z,31.15
2023-03-07T03:34:20.157Z,25.23
2023-03-07T03:36:47.864Z,27.67
2023-03-07T03:39:15.464Z,28.60
2023-03-07T03:41:47.103Z,19.05
2023-03-07T03:44:16.030Z,26.30
2023-03-07T03:46:43.353Z,27.80
2023-03-07T03:49:13.592Z,29.50
2023-03-07T03:51:41.839Z,23.60
2023-03-07T03:54:10.129Z,28.08
2023-03-07T03:56:37.905Z,19.30
2023-03-07T03:59:05.110Z,25.63
2023-03-07T04:01:32.315Z,23.20
2023-03-07T04:03:59.796Z,24.15
2023-03-07T04:06:31.435Z,29.13
2023-03-07T04:08:59.459Z,27.00
2023-03-07T04:11:27.232Z,24.35
2023-03-07T04:13:54.645Z,20.63
2023-03-07T04:16:23.376Z,25.05
2023-03-07T04:18:51.015Z,22.90
2023-03-07T04:21:19.250Z,26.42
2023-03-07T04:23:55.441Z,20.80
2023-03-07T04:26:24.473Z,22.17
2023-03-07T04:28:51.664Z,27.58
2023-03-07T04:31:54.416Z,25.95
2023-03-07T04:34:22.439Z,31.08
2023-03-07T04:36:49.772Z,22.25
2023-03-07T04:39:18.359Z,25.17
2023-03-07T04:41:46.971Z,26.90
2023-03-07T04:44:22.146Z,18.10
2023-03-07T04:46:49.374Z,25.55
2023-03-07T04:49:17.446Z,26.52
2023-03-07T04:51:44.659Z,22.55
2023-03-07T04:54:14.345Z,24.60
2023-03-07T04:56:43.557Z,28.23
2023-03-07T04:59:11.892Z,28.05
2023-03-07T05:01:39.122Z,24.40
2023-03-07T05:04:06.754Z,15.07
2023-03-07T05:06:34.112Z,26.27
2023-03-07T05:09:01.947Z,28.95
2023-03-07T05:11:29.558Z,15.60
2023-03-07T05:13:58.383Z,21.23
2023-03-07T05:16:26.302Z,25.73
2023-03-07T05:18:53.628Z,27.08
2023-03-07T05:21:20.944Z,20.52
2023-03-07T05:23:48.160Z,21.90
2023-03-07T05:26:15.873Z,16.60
2023-03-07T05:28:43.112Z,22.65
2023-03-07T05:31:11.657Z,20.90
2023-03-07T05:33:42.557Z,24.75
2023-03-07T05:36:10.150Z,23.05
2023-03-07T05:38:37.464Z,26.00
2023-03-07T05:41:05.025Z,22.40
2023-03-07T05:43:32.874Z,14.35
2023-03-07T05:46:00.165Z,23.73
2023-03-07T05:48:28.808Z,24.90
2023-03-07T05:50:59.071Z,21.00
2023-03-07T05:53:26.322Z,19.88
2023-03-07T05:55:53.522Z,20.73
2023-03-07T05:58:21.161Z,16.87
2023-03-07T06:00:49.646Z,16.63
2023-03-07T06:03:17.878Z,23.35
2023-03-07T06:05:48.814Z,20.52
2023-03-07T06:08:16.055Z,23.00
2023-03-07T06:10:43.237Z,23.98
2023-03-07T06:13:16.128Z,22.27
2023-03-07T06:15:43.363Z,15.90
2023-03-07T06:18:14.630Z,13.23
2023-03-07T06:20:41.955Z,21.97
2023-03-07T06:23:13.248Z,19.67
2023-03-07T06:25:41.155Z,19.80
2023-03-07T06:28:08.345Z,14.43
2023-03-07T06:30:35.613Z,20.07
2023-03-07T06:33:03.254Z,20.35
2023-03-07T06:35:30.562Z,17.58
2023-03-07T06:37:57.806Z,16.70
2023-03-07T06:40:26.562Z,20.13
2023-03-07T06:42:54.017Z,23.58
2023-03-07T06:45:21.259Z,17.33
2023-03-07T06:47:48.871Z,23.02
2023-03-07T06:50:19.323Z,18.45
2023-03-07T06:52:51.806Z,21.60
2023-03-07T06:55:19.504Z,24.25
2023-03-07T06:57:48.107Z,23.00
2023-03-07T07:00:16.588Z,15.25
2023-03-07T07:02:43.935Z,19.00
2023-03-07T07:05:11.269Z,20.90
2023-03-07T07:07:38.556Z,17.60
2023-03-07T07:10:06.173Z,20.33
2023-03-07T07:12:33.528Z,24.60
2023-03-07T07:15:02.329Z,19.88
2023-03-07T07:17:29.915Z,20.20
2023-03-07T07:19:57.162Z,17.17
2023-03-07T07:22:24.594Z,22.52
2023-03-07T07:24:51.868Z,15.37
2023-03-07T07:27:19.701Z,19.75
2023-03-07T07:29:47.729Z,18.42
2023-03-07T07:32:16.579Z,20.45
2023-03-07T07:34:44.312Z,17.03
2023-03-07T07:37:11.923Z,20.23
2023-03-07T07:39:43.220Z,13.45
2023-03-07T07:42:10.959Z,18.48
2023-03-07T07:44:48.982Z,21.45
2023-03-07T07:47:17.725Z,15.93
2023-03-07T07:49:45.114Z,19.25
2023-03-07T07:52:12.437Z,16.63
2023-03-07T07:54:40.351Z,17.85
2023-03-07T07:57:08.122Z,14.75
2023-03-07T07:59:35.401Z,18.73
2023-03-07T08:02:03.711Z,17.92
2023-03-07T08:04:32.324Z,12.55
2023-03-07T08:06:59.519Z,18.58
2023-03-07T08:09:26.808Z,18.40
2023-03-07T08:11:54.020Z,26.40
2023-03-07T08:14:21.213Z,17.42
2023-03-07T08:16:48.436Z,17.20
2023-03-07T08:19:15.633Z,19.90
2023-03-07T08:21:44.181Z,13.07
2023-03-07T08:24:11.365Z,14.43
2023-03-07T08:26:38.711Z,15.68
2023-03-07T08:29:05.950Z,17.00
2023-03-07T08:31:33.270Z,21.13
2023-03-07T08:34:00.834Z,17.33
2023-03-07T08:36:28.084Z,15.70
2023-03-07T08:38:56.584Z,14.23
2023-03-07T08:41:23.899Z,19.40
2023-03-07T08:43:51.606Z,16.92
2023-03-07T08:46:18.931Z,16.13
2023-03-07T08:48:46.346Z,19.08
2023-03-07T08:51:15.755Z,20.65
2023-03-07T08:53:44.340Z,12.32
2023-03-07T08:56:14.983Z,18.08
2023-03-07T08:58:42.405Z,13.70
2023-03-07T09:01:10.280Z,16.77
2023-03-07T09:03:37.453Z,17.25
2023-03-07T09:06:05.657Z,16.85
2023-03-07T09:08:33.013Z,16.85
2023-03-07T09:11:00.965Z,16.07
2023-03-07T09:13:29.480Z,16.65
2023-03-07T09:15:56.758Z,8.57
2023-03-07T09:18:24.103Z,14.45
2023-03-07T09:20:51.324Z,13.00
2023-03-07T09:23:18.531Z,14.67
2023-03-07T09:25:45.713Z,10.98
2023-03-07T09:28:12.933Z,12.98
2023-03-07T09:30:41.482Z,12.90
2023-03-07T09:33:08.709Z,16.08
2023-03-07T09:35:37.325Z,13.00
2023-03-07T09:38:04.540Z,13.73
2023-03-07T09:40:35.629Z,10.15
2023-03-07T09:43:10.098Z,14.85
2023-03-07T09:45:52.028Z,11.57
2023-03-07T09:48:49.360Z,12.27
2023-03-07T09:51:20.224Z,13.55
2023-03-07T09:53:52.577Z,12.57
2023-03-07T09:56:23.985Z,12.10
2023-03-07T09:58:59.695Z,9.95
2023-03-07T10:01:31.731Z,13.10
2023-03-07T10:04:02.028Z,9.35
2023-03-07T10:06:33.684Z,11.52
2023-03-07T10:09:02.217Z,9.45
2023-03-07T10:11:52.330Z,10.95
2023-03-07T10:14:36.759Z,11.40
2023-03-07T10:17:11.848Z,8.00
2023-03-07T10:19:48.293Z,7.28
2023-03-07T10:22:21.588Z,9.75
2023-03-07T10:25:00.490Z,8.65
2023-03-07T10:27:29.976Z,10.30
2023-03-07T10:29:59.700Z,8.70
2023-03-07T10:32:34.189Z,7.20
2023-03-07T10:35:15.499Z,8.15
2023-03-07T10:37:50.137Z,7.88
2023-03-07T10:40:24.343Z,8.40
2023-03-07T10:42:53.162Z,5.80
2023-03-07T10:45:21.091Z,8.02
2023-03-07T10:47:49.645Z,8.75
2023-03-07T10:50:26.229Z,9.02
2023-03-07T10:52:55.673Z,7.40
2023-03-07T10:55:38.049Z,7.80
2023-03-07T10:58:19.571Z,7.43
2023-03-07T11:00:58.717Z,8.57
2023-03-07T11:03:42.559Z,8.35
2023-03-07T11:06:30.576Z,9.30
2023-03-07T11:09:07.282Z,7.25
2023-03-07T11:11:36.193Z,8.35
2023-03-07T11:14:08.598Z,5.32
2023-03-07T11:16:41.026Z,7.07
2023-03-07T11:19:36.898Z,8.37
2023-03-07T11:22:15.903Z,7.82
2023-03-07T11:24:49.944Z,5.15
2023-03-07T11:27:22.680Z,5.22
2023-03-07T11:30:20.695Z,4.97
2023-03-07T11:32:52.477Z,5.70
2023-03-07T11:35:24.780Z,5.28
2023-03-07T11:38:04.422Z,4.55
2023-03-07T11:40:34.768Z,3.97
2023-03-07T11:43:11.042Z,6.20
2023-03-07T11:45:46.109Z,4.43
2023-03-07T11:48:36.034Z,5.43
2023-03-07T11:51:12.810Z,4.45
2023-03-07T11:53:56.060Z,5.03
2023-03-07T11:56:28.884Z,4.72
2023-03-07T11:59:12.282Z,2.97
2023-03-07T12:01:45.874Z,3.75
2023-03-07T12:05:05.183Z,4.07
2023-03-07T12:07:47.655Z,4.65
2023-03-07T12:10:29.032Z,4.88
2023-03-07T12:13:09.143Z,5.43
2023-03-07T12:15:41.020Z,3.83
2023-03-07T12:18:34.400Z,4.05
2023-03-07T12:21:13.037Z,4.13
2023-03-07T12:23:47.076Z,3.78
2023-03-07T12:26:18.899Z,5.80
2023-03-07T12:28:50.945Z,3.60
2023-03-07T12:31:24.575Z,4.47
2023-03-07T12:33:59.336Z,4.30
2023-03-07T12:36:34.190Z,4.75
2023-03-07T12:39:13.168Z,4.20
2023-03-07T12:41:51.713Z,4.25
2023-03-07T12:44:31.115Z,3.97
2023-03-07T12:47:03.701Z,3.35
2023-03-07T12:49:49.202Z,3.70
2023-03-07T12:52:28.377Z,4.17
2023-03-07T12:55:01.501Z,4.30
2023-03-07T12:57:34.326Z,3.72
2023-03-07T13:00:05.121Z,5.72
2023-03-07T13:02:41.597Z,3.30
2023-03-07T13:05:18.794Z,3.50
2023-03-07T13:07:47.652Z,4.70
2023-03-07T13:10:18.777Z,3.45
2023-03-07T13:12:46.201Z,4.13
2023-03-07T13:15:46.669Z,4.05
2023-03-07T13:18:28.756Z,4.10
2023-03-07T13:21:13.626Z,3.35
2023-03-07T13:23:40.925Z,5.07
2023-03-07T13:26:13.106Z,3.50
2023-03-07T13:28:50.902Z,3.92
2023-03-07T13:31:37.133Z,5.60
2023-03-07T13:34:41.322Z,3.97
2023-03-07T13:37:48.994Z,4.25
2023-03-07T13:40:55.188Z,4.57
2023-03-07T13:43:56.858Z,3.78
2023-03-07T13:46:46.720Z,3.27
2023-03-07T13:49:35.205Z,4.03
2023-03-07T13:52:21.492Z,4.18
2023-03-07T13:54:50.905Z,4.38
2023-03-07T13:57:20.196Z,3.67
2023-03-07T13:59:49.941Z,4.03
2023-03-07T14:02:18.462Z,3.78
2023-03-07T14:04:51.763Z,5.68
2023-03-07T14:07:22.298Z,3.20
2023-03-07T14:09:51.867Z,2.65
2023-03-07T14:12:30.087Z,3.30
2023-03-07T14:15:10.096Z,4.00
2023-03-07T14:17:54.657Z,4.55
2023-03-07T14:20:32.178Z,3.53
2023-03-07T14:23:10.146Z,3.70
2023-03-07T14:25:38.821Z,4.97
2023-03-07T14:28:19.768Z,4.13
2023-03-07T14:30:56.030Z,5.85
2023-03-07T14:33:30.158Z,3.58
2023-03-07T14:35:57.447Z,4.32
2023-03-07T14:38:26.822Z,6.20
2023-03-07T14:41:17.325Z,5.07
2023-03-07T14:43:56.877Z,3.95
2023-03-07T14:46:34.844Z,3.70
2023-03-07T14:49:09.439Z,4.93
2023-03-07T14:51:40.603Z,5.40
2023-03-07T14:54:14.853Z,2.42
2023-03-07T14:56:42.535Z,1.98
2023-03-07T14:59:22.580Z,3.83
2023-03-07T15:01:57.911Z,4.03
2023-03-07T15:04:28.511Z,4.43
2023-03-07T15:06:57.426Z,4.40
2023-03-07T15:09:25.898Z,4.05
2023-03-07T15:11:59.641Z,4.13
2023-03-07T15:14:38.533Z,5.20
2023-03-07T15:17:12.356Z,5.67
2023-03-07T15:19:43.887Z,3.78
2023-03-07T15:22:17.004Z,4.28
2023-03-07T15:24:46.064Z,3.95
2023-03-07T15:27:17.309Z,6.13
2023-03-07T15:29:46.072Z,6.03
2023-03-07T15:32:31.437Z,4.47
2023-03-07T15:35:00.037Z,4.60
2023-03-07T15:37:29.560Z,3.92
2023-03-07T15:39:58.128Z,3.70
2023-03-07T15:42:25.619Z,3.93
2023-03-07T15:44:54.184Z,6.22
2023-03-07T15:47:22.544Z,4.10
2023-03-07T15:49:54.181Z,4.88
2023-03-07T15:52:28.550Z,6.00
2023-03-07T15:54:57.898Z,5.50
2023-03-07T15:57:27.492Z,3.10
2023-03-07T15:59:58.877Z,4.28
2023-03-07T16:02:44.635Z,3.50
2023-03-07T16:05:32.882Z,4.43
2023-03-07T16:08:00.184Z,5.07
2023-03-07T16:10:30.474Z,3.80
2023-03-07T16:13:00.404Z,4.38
2023-03-07T16:15:27.810Z,5.38
2023-03-07T16:17:56.699Z,5.03
2023-03-07T16:20:26.121Z,6.40
2023-03-07T16:22:54.923Z,6.82
2023-03-07T16:25:23.969Z,5.95
2023-03-07T16:27:53.891Z,6.05
2023-03-07T16:30:24.357Z,5.07
2023-03-07T16:32:51.940Z,5.63
2023-03-07T16:35:26.551Z,5.68
2023-03-07T16:37:55.960Z,4.47
2023-03-07T16:40:23.493Z,4.63
2023-03-07T16:42:50.934Z,4.88
2023-03-07T16:45:21.700Z,4.70
2023-03-07T16:47:51.546Z,5.07
2023-03-07T16:50:21.064Z,5.53
2023-03-07T16:52:48.271Z,5.07
2023-03-07T16:55:17.578Z,4.60
2023-03-07T16:57:46.351Z,5.17
2023-03-07T17:00:17.028Z,4.43
2023-03-07T17:02:45.219Z,4.75
2023-03-07T17:05:17.563Z,5.70
2023-03-07T17:07:45.593Z,4.80
2023-03-07T17:10:14.016Z,5.93
2023-03-07T17:12:43.224Z,6.22
2023-03-07T17:15:14.100Z,4.10
2023-03-07T17:17:42.364Z,5.25
2023-03-07T17:20:13.798Z,7.60
2023-03-07T17:22:41.045Z,6.57
2023-03-07T17:25:08.779Z,5.28
2023-03-07T17:27:38.782Z,5.07
2023-03-07T17:30:08.639Z,5.10
2023-03-07T17:32:35.952Z,7.03
2023-03-07T17:35:03.538Z,6.53
2023-03-07T17:37:30.737Z,5.97
2023-03-07T17:39:58.394Z,7.63
2023-03-07T17:42:25.794Z,5.43
2023-03-07T17:44:53.089Z,6.45
2023-03-07T17:47:21.698Z,8.03
2023-03-07T17:49:49.888Z,5.25
2023-03-07T17:52:17.175Z,4.78
2023-03-07T17:54:45.920Z,4.80
2023-03-07T17:57:13.329Z,6.68
2023-03-07T17:59:40.797Z,5.83
2023-03-07T18:02:11.218Z,6.50
2023-03-07T18:04:39.917Z,6.40
2023-03-07T18:07:07.225Z,7.13
2023-03-07T18:09:34.640Z,5.07
2023-03-07T18:12:02.025Z,7.20
2023-03-07T18:14:29.420Z,4.78
2023-03-07T18:16:57.131Z,7.38
2023-03-07T18:19:27.101Z,7.13
2023-03-07T18:21:55.821Z,5.30
2023-03-07T18:24:29.789Z,4.93
2023-03-07T18:26:59.183Z,6.03
2023-03-07T18:29:28.841Z,5.53
2023-03-07T18:31:56.115Z,5.90
2023-03-07T18:34:24.876Z,5.80
2023-03-07T18:36:53.015Z,6.13
2023-03-07T18:39:22.655Z,5.30
2023-03-07T18:41:50.317Z,6.07
2023-03-07T18:44:18.610Z,6.38
2023-03-07T18:46:46.277Z,5.15
2023-03-07T18:49:13.693Z,5.43
2023-03-07T18:51:42.897Z,6.72
2023-03-07T18:54:10.346Z,5.85
2023-03-07T18:56:38.981Z,6.15
2023-03-07T18:59:06.409Z,4.68
2023-03-07T19:01:35.092Z,6.43
2023-03-07T19:04:03.628Z,5.40
2023-03-07T19:06:32.767Z,6.05
2023-03-07T19:09:00.279Z,6.00
2023-03-07T19:11:27.487Z,7.68
2023-03-07T19:13:56.239Z,7.20
2023-03-07T19:16:24.942Z,6.35
2023-03-07T19:18:52.779Z,7.88
2023-03-07T19:21:21.428Z,6.20
2023-03-07T19:23:49.541Z,8.48
2023-03-07T19:26:18.306Z,5.33
2023-03-07T19:28:46.800Z,7.20
2023-03-07T19:31:17.285Z,6.57
2023-03-07T19:33:45.661Z,5.22
2023-03-07T19:36:14.653Z,7.20
2023-03-07T19:38:42.661Z,6.63
2023-03-07T19:41:12.517Z,6.13
2023-03-07T19:43:40.765Z,5.72
2023-03-07T19:46:09.540Z,7.00
2023-03-07T19:48:40.841Z,6.55
2023-03-07T19:51:13.177Z,5.93
2023-03-07T19:53:40.472Z,7.35
2023-03-07T19:56:10.153Z,6.80
2023-03-07T19:58:37.528Z,9.02
2023-03-07T20:01:09.309Z,7.40
2023-03-07T20:03:38.558Z,8.17
2023-03-07T20:06:07.632Z,6.40
2023-03-07T20:08:35.213Z,7.25
2023-03-07T20:11:10.321Z,9.45
2023-03-07T20:13:37.845Z,8.05
2023-03-07T20:16:05.930Z,7.03
2023-03-07T20:18:33.391Z,6.05
2023-03-07T20:21:04.921Z,7.32
2023-03-07T20:23:32.307Z,6.72
2023-03-07T20:26:07.530Z,8.07
2023-03-07T20:28:35.523Z,9.00
2023-03-07T20:31:05.654Z,6.43
2023-03-07T20:33:32.969Z,7.45
2023-03-07T20:36:03.453Z,7.30
2023-03-07T20:38:33.497Z,7.45
2023-03-07T20:41:02.476Z,6.67
2023-03-07T20:43:30.792Z,7.30
2023-03-07T20:46:02.655Z,10.55
2023-03-07T20:48:29.980Z,7.38
2023-03-07T20:51:02.733Z,7.72
2023-03-07T20:53:30.040Z,7.90
2023-03-07T20:56:02.560Z,7.38
2023-03-07T20:58:30.036Z,8.80
2023-03-07T21:00:57.461Z,9.35
2023-03-07T21:03:25.408Z,7.60
2023-03-07T21:05:53.551Z,7.93
2023-03-07T21:08:20.963Z,7.53
2023-03-07T21:10:56.957Z,7.65
2023-03-07T21:13:25.804Z,8.07
2023-03-07T21:15:53.734Z,6.78
2023-03-07T21:18:21.340Z,6.60
2023-03-07T21:20:48.547Z,7.90
2023-03-07T21:23:15.987Z,7.20
2023-03-07T21:25:44.956Z,8.73
2023-03-07T21:28:12.774Z,9.75
2023-03-07T21:30:41.423Z,7.80
2023-03-07T21:33:08.902Z,7.35
2023-03-07T21:35:37.574Z,8.27
2023-03-07T21:38:05.048Z,7.82
2023-03-07T21:40:32.892Z,7.20
2023-03-07T21:43:00.271Z,9.30
2023-03-07T21:45:27.617Z,8.43
2023-03-07T21:47:56.637Z,8.77
2023-03-07T21:50:24.270Z,9.52
2023-03-07T21:52:51.565Z,8.43
2023-03-07T21:55:19.145Z,8.20
2023-03-07T21:57:46.487Z,10.73
2023-03-07T22:00:16.702Z,7.80
2023-03-07T22:02:44.322Z,6.40
2023-03-07T22:05:13.213Z,7.95
2023-03-07T22:07:40.464Z,7.10
2023-03-07T22:10:08.709Z,6.57
2023-03-07T22:12:35.916Z,8.20
2023-03-07T22:15:03.494Z,7.28
2023-03-07T22:17:30.714Z,4.47
2023-03-07T22:19:57.896Z,6.67
2023-03-07T22:22:26.561Z,5.55
2023-03-07T22:24:53.831Z,6.07
2023-03-07T22:27:21.032Z,6.30
2023-03-07T22:29:48.396Z,7.22
2023-03-07T22:32:15.630Z,5.67
2023-03-07T22:34:42.844Z,6.40
2023-03-07T22:37:10.057Z,5.60
2023-03-07T22:39:38.715Z,6.80
2023-03-07T22:42:06.290Z,7.53
2023-03-07T22:44:33.538Z,5.80
2023-03-07T22:47:00.830Z,4.97
2023-03-07T22:49:28.191Z,7.30
2023-03-07T22:51:55.397Z,5.95
2023-03-07T22:54:22.644Z,5.78
2023-03-07T22:56:51.157Z,6.23
2023-03-07T22:59:18.526Z,6.10
2023-03-07T23:01:45.751Z,6.40
2023-03-07T23:04:13.517Z,8.90
2023-03-07T23:06:40.801Z,8.60
2023-03-07T23:09:08.769Z,5.50
2023-03-07T23:11:36.273Z,5.47
2023-03-07T23:14:04.794Z,6.95
2023-03-07T23:16:33.007Z,7.82
2023-03-07T23:19:00.845Z,6.10
2023-03-07T23:21:30.103Z,7.40
2023-03-07T23:23:58.995Z,6.60
2023-03-07T23:26:27.948Z,4.28
2023-03-07T23:28:55.652Z,7.05
2023-03-07T23:31:26.337Z,6.07
2023-03-07T23:33:56.246Z,6.28
2023-03-07T23:36:23.663Z,5.20
2023-03-07T23:38:50.922Z,7.15
2023-03-07T23:41:18.191Z,4.68
2023-03-07T23:43:46.293Z,5.13
2023-03-07T23:46:13.632Z,5.78
2023-03-07T23:48:42.162Z,6.03
2023-03-07T23:51:09.389Z,6.45
2023-03-07T23:53:36.871Z,5.07
2023-03-07T23:56:05.793Z,4.97
2023-03-07T23:58:33.496Z,4.47
